sensor_id;sensor_type;location;lat;lon;timestamp;temperature;humidity
19224;DHT22;9746;47.180;9.776;2023-02-24T10:09:35;15.00;99.90
19224;DHT22;9746;47.180;9.776;2023-02-24T10:12:11;15.00;99.90
19224;DHT22;9746;47.180;9.776;2023-02-24T10:14:57;15.00;99.90
19224;DHT22;9746;47.180;9.776;2023-02-24T10:17:41;15.10;99.90
19224;DHT22;9746;47.180;9.776;2023-02-24T10:20:21;15.20;99.90
19224;DHT22;9746;47.180;9.776;2023-02-24T10:23:06;15.20;99.90
19224;DHT22;9746;47.180;9.776;2023-02-24T10:26:01;15.20;99.90
19224;DHT22;9746;47.180;9.776;2023-02-24T10:28:35;15.30;99.90
19224;DHT22;9746;47.180;9.776;2023-02-24T10:31:20;15.40;99.90
19224;DHT22;9746;47.180;9.776;2023-02-24T10:34:01;15.60;99.90
19224;DHT22;9746;47.180;9.776;2023-02-24T10:36:31;15.80;99.90
19224;DHT22;9746;47.180;9.776;2023-02-24T10:42:09;16.40;99.90
19224;DHT22;9746;47.180;9.776;2023-02-24T10:44:46;16.50;99.90
19224;DHT22;9746;47.180;9.776;2023-02-24T10:47:24;16.50;99.90
19224;DHT22;9746;47.180;9.776;2023-02-24T10:53:18;16.50;99.90
19224;DHT22;9746;47.180;9.776;2023-02-24T10:56:05;16.30;99.90
19224;DHT22;9746;47.180;9.776;2023-02-24T10:59:02;16.20;99.90
19224;DHT22;9746;47.180;9.776;2023-02-24T11:02:01;16.10;99.90
19224;DHT22;9746;47.180;9.776;2023-02-24T11:04:35;16.00;99.90
19224;DHT22;9746;47.180;9.776;2023-02-24T11:07:16;15.90;99.90
19224;DHT22;9746;47.180;9.776;2023-02-24T11:13:19;15.60;99.90
19224;DHT22;9746;47.180;9.776;2023-02-24T11:16:07;15.40;99.90
19224;DHT22;9746;47.180;9.776;2023-02-24T11:18:53;15.40;99.90
19224;DHT22;9746;47.180;9.776;2023-02-24T11:21:23;15.50;99.90
19224;DHT22;9746;47.180;9.776;2023-02-24T11:23:53;15.70;99.90
19224;DHT22;9746;47.180;9.776;2023-02-24T11:26:43;15.80;99.90
19224;DHT22;9746;47.180;9.776;2023-02-24T11:29:28;16.50;99.90
19224;DHT22;9746;47.180;9.776;2023-02-24T11:32:15;17.20;99.90
19224;DHT22;9746;47.180;9.776;2023-02-24T11:38:18;18.50;99.90
19224;DHT22;9746;47.180;9.776;2023-02-24T11:44:21;20.00;99.90
19224;DHT22;9746;47.180;9.776;2023-02-24T11:46:53;20.70;99.90
19224;DHT22;9746;47.180;9.776;2023-02-24T11:49:29;20.90;99.90
19224;DHT22;9746;47.180;9.776;2023-02-24T11:51:59;21.00;99.90
19224;DHT22;9746;47.180;9.776;2023-02-24T11:57:54;20.90;99.90
19224;DHT22;9746;47.180;9.776;2023-02-24T12:00:26;20.80;99.90
19224;DHT22;9746;47.180;9.776;2023-02-24T12:02:59;20.80;99.90
19224;DHT22;9746;47.180;9.776;2023-02-24T12:08:58;20.40;99.90
19224;DHT22;9746;47.180;9.776;2023-02-24T12:18:13;21.50;99.90
19224;DHT22;9746;47.180;9.776;2023-02-24T12:24:10;23.30;99.90
19224;DHT22;9746;47.180;9.776;2023-02-24T12:30:25;24.90;99.90
19224;DHT22;9746;47.180;9.776;2023-02-24T12:33:13;25.30;98.40
19224;DHT22;9746;47.180;9.776;2023-02-24T12:39:13;25.40;97.30
19224;DHT22;9746;47.180;9.776;2023-02-24T12:42:04;25.80;95.70
19224;DHT22;9746;47.180;9.776;2023-02-24T12:44:40;26.10;95.10
19224;DHT22;9746;47.180;9.776;2023-02-24T12:47:13;26.20;93.50
19224;DHT22;9746;47.180;9.776;2023-02-24T12:50:01;25.70;93.20
19224;DHT22;9746;47.180;9.776;2023-02-24T12:52:39;25.20;92.40
19224;DHT22;9746;47.180;9.776;2023-02-24T12:55:35;24.90;92.50
19224;DHT22;9746;47.180;9.776;2023-02-24T12:58:12;24.40;91.70
19224;DHT22;9746;47.180;9.776;2023-02-24T13:01:10;23.90;90.30
19224;DHT22;9746;47.180;9.776;2023-02-24T13:03:53;23.20;90.10
19224;DHT22;9746;47.180;9.776;2023-02-24T13:09:46;22.10;90.80
19224;DHT22;9746;47.180;9.776;2023-02-24T13:12:23;21.60;91.10
19224;DHT22;9746;47.180;9.776;2023-02-24T13:14:53;21.60;92.10
19224;DHT22;9746;47.180;9.776;2023-02-24T13:17:23;22.00;92.10
19224;DHT22;9746;47.180;9.776;2023-02-24T13:19:53;22.20;91.10
19224;DHT22;9746;47.180;9.776;2023-02-24T13:22:24;22.40;90.80
19224;DHT22;9746;47.180;9.776;2023-02-24T13:24:58;22.40;90.70
19224;DHT22;9746;47.180;9.776;2023-02-24T13:27:32;22.30;90.80
19224;DHT22;9746;47.180;9.776;2023-02-24T13:30:05;22.10;91.30
19224;DHT22;9746;47.180;9.776;2023-02-24T13:32:34;21.70;91.30
19224;DHT22;9746;47.180;9.776;2023-02-24T13:35:05;21.30;92.30
19224;DHT22;9746;47.180;9.776;2023-02-24T13:37:34;21.10;92.50
19224;DHT22;9746;47.180;9.776;2023-02-24T13:43:28;20.90;93.30
19224;DHT22;9746;47.180;9.776;2023-02-24T13:49:25;20.20;95.80
19224;DHT22;9746;47.180;9.776;2023-02-24T13:52:36;19.90;96.50
19224;DHT22;9746;47.180;9.776;2023-02-24T13:55:33;19.60;96.80
19224;DHT22;9746;47.180;9.776;2023-02-24T13:58:29;19.20;97.80
19224;DHT22;9746;47.180;9.776;2023-02-24T14:01:06;19.30;98.00
19224;DHT22;9746;47.180;9.776;2023-02-24T14:03:36;19.40;98.50
19224;DHT22;9746;47.180;9.776;2023-02-24T14:06:14;20.10;98.40
19224;DHT22;9746;47.180;9.776;2023-02-24T14:08:46;21.00;97.70
19224;DHT22;9746;47.180;9.776;2023-02-24T14:11:43;22.00;96.90
19224;DHT22;9746;47.180;9.776;2023-02-24T14:14:15;23.00;96.60
19224;DHT22;9746;47.180;9.776;2023-02-24T14:19:43;24.80;95.10
19224;DHT22;9746;47.180;9.776;2023-02-24T14:25:19;26.50;92.20
19224;DHT22;9746;47.180;9.776;2023-02-24T14:27:50;27.50;91.30
19224;DHT22;9746;47.180;9.776;2023-02-24T14:30:27;28.20;90.50
19224;DHT22;9746;47.180;9.776;2023-02-24T14:32:55;28.30;89.30
19224;DHT22;9746;47.180;9.776;2023-02-24T14:35:27;28.60;87.40
19224;DHT22;9746;47.180;9.776;2023-02-24T14:37:56;28.20;88.10
19224;DHT22;9746;47.180;9.776;2023-02-24T14:40:24;27.90;87.00
19224;DHT22;9746;47.180;9.776;2023-02-24T14:43:15;27.70;86.00
19224;DHT22;9746;47.180;9.776;2023-02-24T14:48:35;27.70;85.70
19224;DHT22;9746;47.180;9.776;2023-02-24T14:51:15;27.00;88.10
19224;DHT22;9746;47.180;9.776;2023-02-24T14:53:49;26.30;89.90
19224;DHT22;9746;47.180;9.776;2023-02-24T14:56:18;25.70;90.30
19224;DHT22;9746;47.180;9.776;2023-02-24T14:58:50;24.90;90.20
19224;DHT22;9746;47.180;9.776;2023-02-24T15:04:14;23.40;91.10
19224;DHT22;9746;47.180;9.776;2023-02-24T15:10:18;21.80;92.50
19224;DHT22;9746;47.180;9.776;2023-02-24T15:12:57;21.00;93.30
19224;DHT22;9746;47.180;9.776;2023-02-24T15:15:27;20.40;93.80
19224;DHT22;9746;47.180;9.776;2023-02-24T15:21:30;19.30;95.30
19224;DHT22;9746;47.180;9.776;2023-02-24T15:23:59;18.70;96.40
19224;DHT22;9746;47.180;9.776;2023-02-24T15:26:34;18.50;96.90
19224;DHT22;9746;47.180;9.776;2023-02-24T15:29:11;18.30;97.40
19224;DHT22;9746;47.180;9.776;2023-02-24T15:31:47;18.10;98.10
19224;DHT22;9746;47.180;9.776;2023-02-24T15:34:18;17.80;99.10
19224;DHT22;9746;47.180;9.776;2023-02-24T15:37:02;17.30;99.70
19224;DHT22;9746;47.180;9.776;2023-02-24T15:39:42;17.10;99.90
19224;DHT22;9746;47.180;9.776;2023-02-24T15:42:20;16.90;99.90
19224;DHT22;9746;47.180;9.776;2023-02-24T15:44:54;16.60;99.90
19224;DHT22;9746;47.180;9.776;2023-02-24T15:47:44;16.40;99.90
19224;DHT22;9746;47.180;9.776;2023-02-24T15:50:12;16.20;99.90
19224;DHT22;9746;47.180;9.776;2023-02-24T15:53:04;16.00;99.90
19224;DHT22;9746;47.180;9.776;2023-02-24T15:55:33;15.80;99.90
19224;DHT22;9746;47.180;9.776;2023-02-24T15:58:14;15.30;99.90
19224;DHT22;9746;47.180;9.776;2023-02-24T16:00:42;15.10;99.90
19224;DHT22;9746;47.180;9.776;2023-02-24T16:06:02;14.70;99.90
19224;DHT22;9746;47.180;9.776;2023-02-24T16:08:31;14.60;99.90
19224;DHT22;9746;47.180;9.776;2023-02-24T16:14:25;14.20;99.90
19224;DHT22;9746;47.180;9.776;2023-02-24T16:16:58;14.10;99.90
19224;DHT22;9746;47.180;9.776;2023-02-24T16:19:28;14.10;99.90
19224;DHT22;9746;47.180;9.776;2023-02-24T16:21:57;14.00;99.90
19224;DHT22;9746;47.180;9.776;2023-02-24T16:24:26;14.00;99.90
19224;DHT22;9746;47.180;9.776;2023-02-24T16:30:15;13.90;99.90
19224;DHT22;9746;47.180;9.776;2023-02-24T16:36:09;13.30;99.90
19224;DHT22;9746;47.180;9.776;2023-02-24T16:38:42;13.00;99.90
19224;DHT22;9746;47.180;9.776;2023-02-24T16:41:12;12.70;99.90
19224;DHT22;9746;47.180;9.776;2023-02-24T16:43:39;12.50;99.90
19224;DHT22;9746;47.180;9.776;2023-02-24T16:46:13;12.40;99.90
19224;DHT22;9746;47.180;9.776;2023-02-24T16:48:44;12.30;99.90
19224;DHT22;9746;47.180;9.776;2023-02-24T16:51:13;12.30;99.90
19224;DHT22;9746;47.180;9.776;2023-02-24T16:57:04;12.30;99.90
19224;DHT22;9746;47.180;9.776;2023-02-24T16:59:32;12.40;99.90
19224;DHT22;9746;47.180;9.776;2023-02-24T17:05:23;12.40;99.90
19224;DHT22;9746;47.180;9.776;2023-02-24T17:11:14;12.20;99.90
19224;DHT22;9746;47.180;9.776;2023-02-24T17:17:05;11.80;99.90
19224;DHT22;9746;47.180;9.776;2023-02-24T17:19:33;11.80;99.90
19224;DHT22;9746;47.180;9.776;2023-02-24T17:25:24;11.70;99.90
19224;DHT22;9746;47.180;9.776;2023-02-24T17:31:14;11.60;99.90
19224;DHT22;9746;47.180;9.776;2023-02-24T17:37:05;11.20;99.90
19224;DHT22;9746;47.180;9.776;2023-02-24T17:39:32;11.10;99.90
19224;DHT22;9746;47.180;9.776;2023-02-24T17:45:22;11.00;99.90
19224;DHT22;9746;47.180;9.776;2023-02-24T17:51:12;11.10;99.90
19224;DHT22;9746;47.180;9.776;2023-02-24T17:57:03;11.20;99.90
19224;DHT22;9746;47.180;9.776;2023-02-24T17:59:33;11.20;99.90
19224;DHT22;9746;47.180;9.776;2023-02-24T18:05:22;11.20;99.90
19224;DHT22;9746;47.180;9.776;2023-02-24T18:11:14;11.20;99.90
19224;DHT22;9746;47.180;9.776;2023-02-24T18:17:06;11.10;99.90
19224;DHT22;9746;47.180;9.776;2023-02-24T18:19:34;11.20;99.90
19224;DHT22;9746;47.180;9.776;2023-02-24T18:22:01;11.20;99.90
19224;DHT22;9746;47.180;9.776;2023-02-24T18:24:28;11.10;99.90
19224;DHT22;9746;47.180;9.776;2023-02-24T18:26:59;11.10;99.90
19224;DHT22;9746;47.180;9.776;2023-02-24T18:29:28;10.90;99.90
19224;DHT22;9746;47.180;9.776;2023-02-24T18:31:55;10.80;99.90
19224;DHT22;9746;47.180;9.776;2023-02-24T18:34:24;10.80;99.90
19224;DHT22;9746;47.180;9.776;2023-02-24T18:36:52;10.70;99.90
19224;DHT22;9746;47.180;9.776;2023-02-24T18:42:41;10.70;99.90
19224;DHT22;9746;47.180;9.776;2023-02-24T18:45:09;10.60;99.90
19224;DHT22;9746;47.180;9.776;2023-02-24T18:47:58;10.50;99.90
19224;DHT22;9746;47.180;9.776;2023-02-24T18:50:31;10.40;99.90
19224;DHT22;9746;47.180;9.776;2023-02-24T18:56:26;10.30;99.90
19224;DHT22;9746;47.180;9.776;2023-02-24T18:58:57;10.20;99.90
19224;DHT22;9746;47.180;9.776;2023-02-24T19:01:27;10.00;99.90
19224;DHT22;9746;47.180;9.776;2023-02-24T19:04:10;9.90;99.90
19224;DHT22;9746;47.180;9.776;2023-02-24T19:06:42;9.80;99.90
19224;DHT22;9746;47.180;9.776;2023-02-24T19:09:14;9.80;99.90
19224;DHT22;9746;47.180;9.776;2023-02-24T19:11:47;9.80;99.90
19224;DHT22;9746;47.180;9.776;2023-02-24T19:14:16;9.90;99.90
19224;DHT22;9746;47.180;9.776;2023-02-24T19:16:45;9.90;99.90
19224;DHT22;9746;47.180;9.776;2023-02-24T19:19:23;9.90;99.90
19224;DHT22;9746;47.180;9.776;2023-02-24T19:21:52;9.80;99.90
19224;DHT22;9746;47.180;9.776;2023-02-24T19:24:22;9.80;99.90
19224;DHT22;9746;47.180;9.776;2023-02-24T19:26:51;9.90;99.90
19224;DHT22;9746;47.180;9.776;2023-02-24T19:29:35;9.90;99.90
19224;DHT22;9746;47.180;9.776;2023-02-24T19:32:02;9.90;99.90
19224;DHT22;9746;47.180;9.776;2023-02-24T19:34:39;9.80;99.90
19224;DHT22;9746;47.180;9.776;2023-02-24T19:37:09;9.70;99.90
19224;DHT22;9746;47.180;9.776;2023-02-24T19:39:44;9.70;99.90
19224;DHT22;9746;47.180;9.776;2023-02-24T19:42:12;9.60;99.90
19224;DHT22;9746;47.180;9.776;2023-02-24T19:44:39;9.70;99.90
19224;DHT22;9746;47.180;9.776;2023-02-24T19:47:07;9.70;99.90
19224;DHT22;9746;47.180;9.776;2023-02-24T19:49:35;9.70;99.90
19224;DHT22;9746;47.180;9.776;2023-02-24T19:52:02;9.70;99.90
19224;DHT22;9746;47.180;9.776;2023-02-24T19:54:34;9.80;99.90
19224;DHT22;9746;47.180;9.776;2023-02-24T19:57:03;9.70;99.90
19224;DHT22;9746;47.180;9.776;2023-02-24T19:59:31;9.70;99.90
19224;DHT22;9746;47.180;9.776;2023-02-24T20:01:59;9.80;99.90
19224;DHT22;9746;47.180;9.776;2023-02-24T20:04:35;9.80;99.90
19224;DHT22;9746;47.180;9.776;2023-02-24T20:07:04;9.80;99.90
19224;DHT22;9746;47.180;9.776;2023-02-24T20:09:45;9.80;99.90
19224;DHT22;9746;47.180;9.776;2023-02-24T20:12:13;9.80;99.90
19224;DHT22;9746;47.180;9.776;2023-02-24T20:14:42;9.80;99.90
19224;DHT22;9746;47.180;9.776;2023-02-24T20:17:09;9.80;99.90
